Time;durP1;ratioP1;P1;durP2;ratioP2;P2;SDS_P1;SDS_P2;PMS_P1;PMS_P2;Temp;Humidity;BMP_temperature;BMP_pressure;BME280_temperature;BME280_humidity;BME280_pressure;Samples;Min_cycle;Max_cycle;Signal;HPM_P1;HPM_P2
2022/01/10 00:01:50;;;;;;;8.60;3.05;;;5.60;99.90;;;;;;4953028;29;20238;-68
2022/01/10 00:04:18;;;;;;;11.52;2.85;;;5.70;99.90;;;;;;4952662;29;20231;-68
2022/01/10 00:06:46;;;;;;;7.15;2.95;;;5.70;99.90;;;;;;4928328;29;20207;-68
2022/01/10 00:09:14;;;;;;;8.18;3.60;;;5.70;99.90;;;;;;4928221;29;20657;-68
2022/01/10 00:11:44;;;;;;;7.38;2.83;;;5.80;99.90;;;;;;4928097;29;20314;-68
2022/01/10 00:14:12;;;;;;;6.78;2.75;;;5.80;99.90;;;;;;4952192;29;20318;-68
2022/01/10 00:16:39;;;;;;;5.22;2.70;;;5.80;99.90;;;;;;4952666;29;20238;-68
2022/01/10 00:19:07;;;;;;;12.70;3.95;;;5.90;99.90;;;;;;4952578;29;20206;-67
2022/01/10 00:21:35;;;;;;;5.85;2.55;;;5.90;99.90;;;;;;4952661;29;20247;-68
2022/01/10 00:24:03;;;;;;;4.85;2.70;;;5.90;99.90;;;;;;4952037;29;20691;-68
2022/01/10 00:26:31;;;;;;;5.03;2.65;;;5.90;99.90;;;;;;4948610;29;20704;-68
2022/01/10 00:29:01;;;;;;;6.45;2.45;;;5.90;99.90;;;;;;4944435;29;20239;-69
2022/01/10 00:31:29;;;;;;;7.18;2.97;;;5.90;99.90;;;;;;4956061;29;20323;-69
2022/01/10 00:33:57;;;;;;;9.52;3.13;;;6.00;99.90;;;;;;4955644;29;20297;-68
2022/01/10 00:36:25;;;;;;;6.32;3.55;;;6.00;99.90;;;;;;4956155;29;20282;-71
2022/01/10 00:38:53;;;;;;;8.73;3.55;;;6.10;99.90;;;;;;4955957;29;20294;-68
2022/01/10 00:41:21;;;;;;;8.48;2.83;;;6.10;99.90;;;;;;4956028;29;20227;-69
2022/01/10 00:43:50;;;;;;;4.85;2.72;;;6.10;99.90;;;;;;4955885;29;20343;-68
2022/01/10 00:46:22;;;;;;;4.90;3.15;;;6.10;99.90;;;;;;4956087;29;20214;-70
2022/01/10 00:48:50;;;;;;;7.30;2.90;;;6.10;99.90;;;;;;4947862;29;20201;-68
2022/01/10 00:51:18;;;;;;;6.20;2.58;;;6.00;99.90;;;;;;4943954;29;20303;-68
2022/01/10 00:53:49;;;;;;;5.65;2.53;;;6.00;99.90;;;;;;4938857;29;20669;-69
2022/01/10 00:56:18;;;;;;;7.47;2.30;;;6.00;99.90;;;;;;4952621;29;20239;-69
2022/01/10 00:58:46;;;;;;;6.43;2.70;;;6.00;99.90;;;;;;4944654;29;20292;-68
2022/01/10 01:01:14;;;;;;;5.97;2.60;;;5.90;99.90;;;;;;4952107;29;20263;-68
2022/01/10 01:03:44;;;;;;;4.38;2.30;;;6.00;99.90;;;;;;4955381;29;20830;-69
2022/01/10 01:06:13;;;;;;;4.05;2.35;;;6.00;99.90;;;;;;4955775;29;20290;-69
2022/01/10 01:08:42;;;;;;;4.97;2.47;;;6.10;99.90;;;;;;4955485;29;20664;-69
2022/01/10 01:14:07;;;;;;;4.88;2.42;;;6.20;99.90;;;;;;4955211;29;20274;-68
2022/01/10 01:16:46;;;;;;;4.60;2.60;;;6.20;99.90;;;;;;4931887;29;20243;-69
2022/01/10 01:24:49;;;;;;;5.05;3.40;;;6.30;99.90;;;;;;4936664;29;20311;-69
2022/01/10 01:27:17;;;;;;;6.20;3.00;;;6.20;99.90;;;;;;4937489;29;20213;-70
2022/01/10 01:29:44;;;;;;;8.70;3.35;;;6.10;99.90;;;;;;4950916;29;20267;-69
2022/01/10 01:32:13;;;;;;;11.23;3.55;;;6.10;99.90;;;;;;4954805;29;20306;-69
2022/01/10 01:34:42;;;;;;;6.68;2.97;;;6.10;99.90;;;;;;4954872;29;20306;-69
2022/01/10 01:37:11;;;;;;;7.90;3.60;;;6.10;99.90;;;;;;4954723;29;20222;-69
2022/01/10 01:39:39;;;;;;;8.23;2.95;;;6.20;99.90;;;;;;4953833;29;20314;-69
2022/01/10 01:42:30;;;;;;;7.97;2.65;;;6.20;99.90;;;;;;4954662;28;20290;-69
2022/01/10 01:44:55;;;;;;;10.85;2.78;;;6.30;99.90;;;;;;4954715;29;20294;-69
2022/01/10 01:47:23;;;;;;;5.05;2.40;;;6.40;99.90;;;;;;4954516;29;20290;-69
2022/01/10 01:49:52;;;;;;;11.93;3.60;;;6.30;99.90;;;;;;4954618;29;20262;-69
2022/01/10 01:52:20;;;;;;;6.70;2.35;;;6.40;99.90;;;;;;4954431;29;20231;-69
2022/01/10 01:54:49;;;;;;;4.50;2.53;;;6.30;99.90;;;;;;4939244;29;20665;-68
2022/01/10 01:57:17;;;;;;;6.03;2.90;;;6.40;99.90;;;;;;4935733;29;20224;-70
2022/01/10 01:59:45;;;;;;;5.70;2.63;;;6.20;99.90;;;;;;4942352;29;20258;-70
2022/01/10 02:02:13;;;;;;;10.93;3.17;;;6.20;99.90;;;;;;4935869;29;20303;-69
2022/01/10 02:04:41;;;;;;;11.70;3.30;;;6.20;99.90;;;;;;4935954;29;20208;-69
2022/01/10 02:07:11;;;;;;;8.48;2.75;;;6.20;99.90;;;;;;4935954;29;20204;-69
2022/01/10 02:09:39;;;;;;;7.85;2.70;;;6.30;99.90;;;;;;4935733;29;20350;-69
2022/01/10 02:12:08;;;;;;;9.70;3.15;;;6.40;99.90;;;;;;4935785;29;20635;-69
2022/01/10 02:14:36;;;;;;;8.73;3.00;;;6.40;99.90;;;;;;4935576;29;20291;-68
2022/01/10 02:17:05;;;;;;;6.18;3.10;;;6.50;99.90;;;;;;4935782;29;20271;-71
2022/01/10 02:19:33;;;;;;;10.57;3.35;;;6.50;99.90;;;;;;4935773;29;20291;-69
2022/01/10 02:22:03;;;;;;;9.95;3.20;;;6.40;99.90;;;;;;4935327;29;20713;-69
2022/01/10 02:24:30;;;;;;;10.48;4.03;;;6.30;99.90;;;;;;4928151;29;20337;-68
2022/01/10 02:26:58;;;;;;;8.13;3.65;;;6.20;99.90;;;;;;4929106;29;20247;-69
2022/01/10 02:29:26;;;;;;;8.88;3.05;;;6.20;99.90;;;;;;4943109;29;20629;-69
2022/01/10 02:31:55;;;;;;;11.93;3.17;;;6.20;99.90;;;;;;4929336;29;20240;-71
2022/01/10 02:34:25;;;;;;;11.52;3.80;;;6.20;99.90;;;;;;4929495;29;20199;-70
2022/01/10 02:36:57;;;;;;;9.75;4.40;;;6.20;99.90;;;;;;4935344;29;20311;-69
2022/01/10 02:39:26;;;;;;;13.10;4.72;;;6.20;99.90;;;;;;4935465;29;20248;-69
2022/01/10 02:41:54;;;;;;;13.82;3.75;;;6.20;99.90;;;;;;4935267;29;20239;-70
2022/01/10 02:44:22;;;;;;;9.50;4.43;;;6.20;99.90;;;;;;4935382;29;20239;-68
2022/01/10 02:46:50;;;;;;;10.32;3.85;;;6.30;99.90;;;;;;4935326;29;20204;-69
2022/01/10 02:49:25;;;;;;;5.88;3.58;;;6.20;99.90;;;;;;4935276;29;20295;-69
2022/01/10 02:51:54;;;;;;;5.38;3.22;;;6.10;99.90;;;;;;4935380;29;20262;-70
2022/01/10 02:54:23;;;;;;;11.45;3.95;;;6.10;99.90;;;;;;4941350;29;20314;-69
2022/01/10 02:56:53;;;;;;;10.57;3.80;;;6.10;99.90;;;;;;4945691;29;20338;-69
2022/01/10 02:59:23;;;;;;;11.50;4.68;;;6.20;99.90;;;;;;4943790;29;20234;-70
2022/01/10 03:01:52;;;;;;;12.50;4.22;;;6.20;99.90;;;;;;4944523;29;20211;-69
2022/01/10 03:04:20;;;;;;;7.28;3.90;;;6.20;99.90;;;;;;4934881;29;20307;-69
2022/01/10 03:06:49;;;;;;;5.75;3.75;;;6.20;99.90;;;;;;4934480;29;20220;-69
2022/01/10 03:09:17;;;;;;;9.68;4.03;;;6.30;99.90;;;;;;4934958;29;20298;-69
2022/01/10 03:11:45;;;;;;;7.78;3.88;;;6.20;99.90;;;;;;4934318;29;20236;-69
2022/01/10 03:14:14;;;;;;;16.90;4.00;;;6.30;99.90;;;;;;4934543;29;20208;-69
2022/01/10 03:16:42;;;;;;;9.98;3.65;;;6.40;99.90;;;;;;4934526;29;20697;-69
2022/01/10 03:19:10;;;;;;;8.27;4.38;;;6.50;99.90;;;;;;4934608;29;20208;-69
2022/01/10 03:21:39;;;;;;;4.75;3.08;;;6.00;99.90;;;;;;4934223;29;20331;-68
2022/01/10 03:24:07;;;;;;;10.00;3.35;;;5.60;99.90;;;;;;4934298;29;20216;-69
2022/01/10 03:26:35;;;;;;;9.73;3.85;;;5.20;99.90;;;;;;4934380;29;20287;-70
2022/01/10 03:29:03;;;;;;;7.28;3.45;;;5.10;99.90;;;;;;4947662;29;20200;-69
2022/01/10 03:31:32;;;;;;;6.28;3.33;;;5.20;99.90;;;;;;4950877;29;20669;-70
2022/01/10 03:34:00;;;;;;;9.77;3.50;;;5.30;99.90;;;;;;4952488;29;20290;-69
2022/01/10 03:36:28;;;;;;;10.13;3.35;;;5.40;99.90;;;;;;4952560;29;20274;-70
2022/01/10 03:38:56;;;;;;;5.70;3.10;;;5.50;99.90;;;;;;4952756;29;20814;-69
2022/01/10 03:41:23;;;;;;;8.05;3.17;;;5.50;99.90;;;;;;4952434;29;20327;-69
2022/01/10 03:43:51;;;;;;;7.97;4.20;;;5.60;99.90;;;;;;4952536;29;20250;-69
2022/01/10 03:46:19;;;;;;;6.97;3.75;;;5.70;99.90;;;;;;4952590;29;20253;-68
2022/01/10 03:48:49;;;;;;;9.07;3.65;;;5.60;99.90;;;;;;4952671;29;20286;-70
2022/01/10 03:51:16;;;;;;;8.20;3.80;;;5.50;99.90;;;;;;4952366;29;20660;-69
2022/01/10 03:53:44;;;;;;;9.95;4.10;;;5.60;99.90;;;;;;4946234;29;20224;-70
2022/01/10 03:56:12;;;;;;;8.23;3.35;;;5.60;99.90;;;;;;4932800;29;20701;-70
2022/01/10 03:58:41;;;;;;;9.82;3.40;;;5.60;99.90;;;;;;4942263;29;20211;-70
2022/01/10 04:01:09;;;;;;;9.80;3.60;;;5.50;99.90;;;;;;4952089;28;20638;-70
2022/01/10 04:03:38;;;;;;;8.60;4.20;;;5.60;99.90;;;;;;4956399;29;20215;-68
2022/01/10 04:06:08;;;;;;;4.97;3.80;;;5.70;99.90;;;;;;4952122;29;20310;-70
2022/01/10 04:08:36;;;;;;;12.80;4.00;;;5.70;99.90;;;;;;4944818;29;20203;-70
2022/01/10 04:11:06;;;;;;;9.77;4.10;;;5.70;99.90;;;;;;4971188;23;20277;-63
2022/01/10 04:13:34;;;;;;;13.43;5.63;;;5.60;99.90;;;;;;4952343;28;20301;-63
2022/01/10 04:16:02;;;;;;;11.43;4.65;;;5.70;99.90;;;;;;4950914;28;20309;-63
2022/01/10 04:18:30;;;;;;;9.93;4.65;;;5.70;99.90;;;;;;4951150;28;20231;-63
2022/01/10 04:20:58;;;;;;;8.75;4.20;;;5.70;99.90;;;;;;4956629;28;20790;-63
2022/01/10 04:23:28;;;;;;;10.00;4.68;;;5.80;99.90;;;;;;4956418;28;20221;-63
2022/01/10 04:25:55;;;;;;;6.72;3.90;;;5.80;99.90;;;;;;4956621;29;20302;-62
2022/01/10 04:28:23;;;;;;;9.27;5.13;;;5.80;99.90;;;;;;4950694;28;20633;-63
2022/01/10 04:30:51;;;;;;;16.10;6.70;;;5.90;99.90;;;;;;4952359;29;20912;-63
2022/01/10 04:33:20;;;;;;;14.35;7.78;;;6.00;99.90;;;;;;4956091;29;20255;-63
2022/01/10 04:35:49;;;;;;;19.02;9.90;;;6.00;99.90;;;;;;4956391;29;20288;-63
2022/01/10 04:38:17;;;;;;;17.63;10.77;;;6.00;99.90;;;;;;4956594;29;20242;-60
2022/01/10 04:40:46;;;;;;;24.90;12.15;;;6.00;99.90;;;;;;4956371;29;20238;-61
2022/01/10 04:43:15;;;;;;;19.35;12.07;;;5.90;99.90;;;;;;4956411;29;20235;-61
2022/01/10 04:45:43;;;;;;;20.33;11.77;;;5.90;99.90;;;;;;4956311;28;20644;-60
2022/01/10 04:48:11;;;;;;;23.48;14.35;;;5.90;99.90;;;;;;4956611;29;20207;-60
2022/01/10 04:51:10;;;;;;;16.70;11.13;;;5.90;99.90;;;;;;4955969;29;20314;-61
2022/01/10 04:53:40;;;;;;;13.93;9.82;;;5.90;99.90;;;;;;4950639;29;20208;-61
2022/01/10 04:56:09;;;;;;;14.13;8.82;;;5.90;99.90;;;;;;4954013;29;20290;-61
2022/01/10 04:58:37;;;;;;;14.52;7.97;;;5.90;99.90;;;;;;4951574;29;20304;-61
2022/01/10 05:01:05;;;;;;;12.98;8.35;;;5.90;99.90;;;;;;4955650;29;20724;-61
2022/01/10 05:03:34;;;;;;;12.27;7.88;;;5.90;99.90;;;;;;4955664;29;20203;-60
2022/01/10 05:06:02;;;;;;;16.35;9.00;;;5.80;99.90;;;;;;4943723;29;20904;-61
2022/01/10 05:08:30;;;;;;;13.85;11.07;;;5.70;99.90;;;;;;4944046;29;20734;-60
2022/01/10 05:10:58;;;;;;;14.38;10.18;;;5.80;99.90;;;;;;4943290;29;20289;-61
2022/01/10 05:13:27;;;;;;;18.50;9.15;;;5.60;99.90;;;;;;4939090;29;20231;-60
2022/01/10 05:15:55;;;;;;;10.23;7.60;;;5.60;99.90;;;;;;4955654;29;20630;-61
2022/01/10 05:18:24;;;;;;;15.05;8.02;;;5.60;99.90;;;;;;4955617;29;20231;-61
2022/01/10 05:20:52;;;;;;;10.25;7.45;;;5.50;99.90;;;;;;4949623;29;20224;-60
2022/01/10 05:23:20;;;;;;;14.52;7.50;;;5.40;99.90;;;;;;4955794;29;20302;-60
2022/01/10 05:25:48;;;;;;;11.95;8.18;;;5.40;99.90;;;;;;4955915;29;20294;-60
2022/01/10 05:28:17;;;;;;;16.33;8.18;;;5.40;99.90;;;;;;4936440;29;20208;-60
2022/01/10 05:30:48;;;;;;;13.25;7.25;;;5.10;99.90;;;;;;4945709;29;20645;-61
2022/01/10 05:33:16;;;;;;;15.18;8.05;;;5.10;99.90;;;;;;4946775;29;20295;-61
2022/01/10 05:35:45;;;;;;;11.50;8.43;;;5.10;99.90;;;;;;4955241;29;20302;-61
2022/01/10 05:38:14;;;;;;;16.95;9.10;;;5.00;99.90;;;;;;4955386;28;20219;-61
2022/01/10 05:40:42;;;;;;;12.73;7.10;;;5.10;99.90;;;;;;4951802;29;20251;-61
2022/01/10 05:43:10;;;;;;;17.63;8.15;;;5.10;99.90;;;;;;4955609;29;20684;-60
2022/01/10 05:45:39;;;;;;;10.10;7.55;;;5.10;99.90;;;;;;4955767;29;20298;-61
2022/01/10 05:48:12;;;;;;;14.00;8.63;;;5.10;99.90;;;;;;4955669;29;20298;-61
2022/01/10 05:50:43;;;;;;;17.88;9.38;;;5.00;99.90;;;;;;4955492;29;20223;-61
2022/01/10 05:53:11;;;;;;;14.57;9.23;;;5.10;99.90;;;;;;4953228;29;20614;-61
2022/01/10 05:55:39;;;;;;;15.30;9.30;;;5.20;99.90;;;;;;4952623;28;20287;-61
2022/01/10 05:58:08;;;;;;;14.20;9.10;;;5.30;99.90;;;;;;4953361;29;20318;-61
2022/01/10 06:00:36;;;;;;;15.25;9.23;;;5.30;99.90;;;;;;4943841;29;20259;-61
2022/01/10 06:03:04;;;;;;;11.57;7.25;;;5.30;99.90;;;;;;4955075;29;20307;-61
2022/01/10 06:05:39;;;;;;;14.38;7.72;;;5.20;99.90;;;;;;4955268;29;20204;-60
2022/01/10 06:08:08;;;;;;;14.13;8.02;;;5.10;99.90;;;;;;4955136;29;20291;-61
2022/01/10 06:10:37;;;;;;;11.13;7.20;;;5.10;99.90;;;;;;4954694;29;20258;-60
2022/01/10 06:13:04;;;;;;;10.45;6.93;;;4.90;99.90;;;;;;4954855;28;20692;-61
2022/01/10 06:15:33;;;;;;;13.45;7.55;;;4.80;99.90;;;;;;4950018;29;20204;-60
2022/01/10 06:18:00;;;;;;;13.60;7.90;;;4.70;99.90;;;;;;4952930;29;20326;-61
2022/01/10 06:20:28;;;;;;;13.98;8.18;;;4.50;99.90;;;;;;4953437;29;20224;-60
2022/01/10 06:22:57;;;;;;;12.70;7.00;;;4.50;99.90;;;;;;4953974;28;20285;-61
2022/01/10 06:25:28;;;;;;;15.65;8.32;;;4.50;99.90;;;;;;4949911;28;20716;-61
2022/01/10 06:27:57;;;;;;;14.25;7.75;;;4.60;99.90;;;;;;4950146;29;20248;-61
2022/01/10 06:30:25;;;;;;;17.83;8.45;;;4.70;99.90;;;;;;4952296;29;20214;-61
2022/01/10 06:32:53;;;;;;;12.23;8.50;;;4.80;99.90;;;;;;4945171;29;20212;-61
2022/01/10 06:35:21;;;;;;;12.57;8.18;;;4.60;99.90;;;;;;4953882;29;20262;-60
2022/01/10 06:37:49;;;;;;;16.45;8.45;;;4.40;99.90;;;;;;4954008;29;20314;-60
2022/01/10 06:40:19;;;;;;;15.73;8.68;;;4.10;99.90;;;;;;4949617;29;20234;-61
2022/01/10 06:42:47;;;;;;;13.13;9.25;;;4.00;99.90;;;;;;4939440;29;20215;-61
2022/01/10 06:45:18;;;;;;;15.02;8.95;;;4.00;99.90;;;;;;4942646;29;20695;-60
2022/01/10 06:47:46;;;;;;;16.63;9.45;;;4.00;99.90;;;;;;4953807;29;20231;-60
2022/01/10 06:50:13;;;;;;;15.30;8.00;;;3.90;99.90;;;;;;4953855;29;20725;-60
2022/01/10 06:52:41;;;;;;;11.85;8.20;;;3.70;99.90;;;;;;4953420;29;20199;-60
2022/01/10 06:55:10;;;;;;;13.07;8.10;;;3.60;99.90;;;;;;4953763;29;20213;-61
2022/01/10 06:57:39;;;;;;;13.13;8.77;;;3.60;99.90;;;;;;4952895;29;20635;-60
2022/01/10 07:00:09;;;;;;;17.30;8.73;;;3.60;99.90;;;;;;4946429;28;20289;-60
2022/01/10 07:02:37;;;;;;;16.55;9.52;;;3.50;99.90;;;;;;4953278;29;20211;-61
2022/01/10 07:05:06;;;;;;;12.82;8.40;;;3.50;99.90;;;;;;4953697;29;20199;-60
2022/01/10 07:07:34;;;;;;;15.65;9.20;;;3.40;99.90;;;;;;4953529;29;20230;-60
2022/01/10 07:10:02;;;;;;;11.95;7.60;;;3.40;99.90;;;;;;4953619;29;20207;-60
2022/01/10 07:12:29;;;;;;;16.60;9.13;;;3.40;99.90;;;;;;4952851;29;20274;-61
2022/01/10 07:14:59;;;;;;;15.45;8.73;;;3.40;99.90;;;;;;4953459;29;20294;-60
2022/01/10 07:17:26;;;;;;;18.10;8.70;;;3.30;99.90;;;;;;4953275;29;20708;-60
2022/01/10 07:19:54;;;;;;;13.48;8.30;;;3.30;99.90;;;;;;4953317;29;20278;-60
2022/01/10 07:22:23;;;;;;;15.00;8.02;;;3.30;99.90;;;;;;4953108;29;20596;-60
2022/01/10 07:24:51;;;;;;;15.02;8.23;;;3.30;99.90;;;;;;4953375;29;20203;-61
2022/01/10 07:27:19;;;;;;;17.00;9.38;;;3.30;99.90;;;;;;4953211;29;20552;-61
2022/01/10 07:29:49;;;;;;;13.73;8.25;;;3.30;99.90;;;;;;4947759;29;20246;-61
2022/01/10 07:32:19;;;;;;;16.92;9.65;;;3.30;99.90;;;;;;4945209;29;20329;-61
2022/01/10 07:34:47;;;;;;;19.95;8.02;;;3.30;99.90;;;;;;4953168;29;20214;-60
2022/01/10 07:37:17;;;;;;;16.20;10.20;;;3.30;99.90;;;;;;4952909;29;20237;-60
2022/01/10 07:39:45;;;;;;;13.27;9.30;;;3.30;99.90;;;;;;4953199;29;20736;-60
2022/01/10 07:42:14;;;;;;;18.20;11.95;;;3.30;99.90;;;;;;4952868;29;20231;-60
2022/01/10 07:44:41;;;;;;;15.98;11.30;;;3.30;99.90;;;;;;4953172;29;20289;-60
2022/01/10 07:47:09;;;;;;;15.77;11.93;;;3.20;99.90;;;;;;4952972;29;20325;-60
2022/01/10 07:49:39;;;;;;;21.13;11.80;;;3.20;99.90;;;;;;4953051;29;20641;-60
2022/01/10 07:52:08;;;;;;;13.00;11.15;;;3.30;99.90;;;;;;4952934;29;20270;-61
2022/01/10 07:54:36;;;;;;;14.05;11.60;;;3.40;99.90;;;;;;4953006;28;20243;-60
2022/01/10 07:57:04;;;;;;;19.95;12.00;;;3.40;99.90;;;;;;4952791;29;20724;-60
2022/01/10 07:59:32;;;;;;;17.40;10.93;;;3.40;99.90;;;;;;4943329;28;20307;-60
2022/01/10 08:02:00;;;;;;;19.13;9.75;;;3.40;99.90;;;;;;4951157;29;20318;-60
2022/01/10 08:04:28;;;;;;;15.93;10.48;;;3.30;99.90;;;;;;4952991;29;20273;-61
2022/01/10 08:06:58;;;;;;;15.10;10.18;;;3.20;99.90;;;;;;4952727;29;20221;-60
2022/01/10 08:09:26;;;;;;;11.13;9.52;;;3.30;99.90;;;;;;4952815;29;20330;-61
2022/01/10 08:11:59;;;;;;;13.38;10.27;;;3.20;99.90;;;;;;4952293;29;20239;-59
2022/01/10 08:14:28;;;;;;;11.95;10.55;;;3.10;99.90;;;;;;4952879;29;20298;-61
2022/01/10 08:16:56;;;;;;;14.38;10.75;;;3.10;99.90;;;;;;4952753;29;20630;-60
2022/01/10 08:19:26;;;;;;;16.23;11.02;;;3.20;99.90;;;;;;4952728;28;20768;-60
2022/01/10 08:21:55;;;;;;;10.15;9.15;;;3.20;99.90;;;;;;4952641;29;20225;-59
2022/01/10 08:24:25;;;;;;;15.63;10.60;;;3.10;99.90;;;;;;4952374;29;20243;-60
2022/01/10 08:26:55;;;;;;;18.90;11.90;;;3.20;99.90;;;;;;4953115;28;20709;-61
2022/01/10 08:29:23;;;;;;;15.30;9.50;;;3.20;99.90;;;;;;4944667;29;20294;-61
2022/01/10 08:31:51;;;;;;;13.85;9.65;;;3.10;99.90;;;;;;4945521;29;20259;-61
2022/01/10 08:34:21;;;;;;;19.23;9.85;;;3.00;99.90;;;;;;4952527;28;20239;-60
2022/01/10 08:36:49;;;;;;;15.43;10.23;;;3.10;99.90;;;;;;4952658;29;20207;-60
2022/01/10 08:39:18;;;;;;;13.73;9.80;;;3.20;99.90;;;;;;4952722;29;20231;-60
2022/01/10 08:41:48;;;;;;;13.88;9.75;;;3.50;99.90;;;;;;4952539;29;20298;-61
2022/01/10 08:44:17;;;;;;;15.50;10.02;;;3.80;99.90;;;;;;4952391;28;20306;-61
2022/01/10 08:46:45;;;;;;;12.07;10.23;;;4.20;99.90;;;;;;4952768;28;20504;-60
2022/01/10 08:49:14;;;;;;;11.60;7.72;;;4.60;99.90;;;;;;4955832;28;20290;-61
2022/01/10 08:51:42;;;;;;;13.80;8.20;;;5.00;99.90;;;;;;4955914;29;20319;-60
2022/01/10 08:54:11;;;;;;;13.05;7.50;;;5.50;99.90;;;;;;4955748;29;20298;-61
2022/01/10 08:56:40;;;;;;;10.70;7.25;;;5.90;99.90;;;;;;4956061;28;20199;-61
2022/01/10 08:59:09;;;;;;;12.02;6.40;;;6.30;99.90;;;;;;4948804;29;20676;-61
2022/01/10 09:01:37;;;;;;;9.85;8.10;;;6.60;99.90;;;;;;4949934;29;20255;-61
2022/01/10 09:04:07;;;;;;;13.15;8.18;;;6.90;99.90;;;;;;4955420;29;20207;-61
2022/01/10 09:06:35;;;;;;;9.48;6.20;;;7.10;99.90;;;;;;4955920;29;20617;-61
2022/01/10 09:09:06;;;;;;;12.70;6.57;;;7.20;99.90;;;;;;4955543;29;20211;-61
2022/01/10 09:11:34;;;;;;;11.15;6.80;;;7.30;99.90;;;;;;4955283;29;20326;-61
2022/01/10 09:14:02;;;;;;;15.00;6.32;;;7.40;99.90;;;;;;4955194;29;20339;-60
2022/01/10 09:16:31;;;;;;;11.20;6.15;;;7.50;99.90;;;;;;4955368;29;20286;-61
2022/01/10 09:18:59;;;;;;;10.35;6.80;;;7.80;99.90;;;;;;4955382;29;20666;-63
2022/01/10 09:21:27;;;;;;;9.00;5.70;;;8.10;99.90;;;;;;4955420;29;20764;-63
2022/01/10 09:23:55;;;;;;;9.10;5.20;;;8.40;99.90;;;;;;4955145;29;20635;-63
2022/01/10 09:26:23;;;;;;;9.18;5.80;;;8.60;99.90;;;;;;4955347;29;20298;-63
2022/01/10 09:28:52;;;;;;;11.57;6.00;;;8.90;99.90;;;;;;4946355;29;20230;-63
2022/01/10 09:31:21;;;;;;;8.77;4.82;;;9.10;99.90;;;;;;4950274;29;20782;-63
2022/01/10 09:33:54;;;;;;;8.68;5.40;;;9.40;99.90;;;;;;4955058;29;20698;-63
2022/01/10 09:36:24;;;;;;;9.02;5.40;;;9.40;99.90;;;;;;4955281;29;20238;-64
2022/01/10 09:38:53;;;;;;;10.45;5.78;;;9.60;99.90;;;;;;4954976;29;20298;-60
2022/01/10 09:41:21;;;;;;;9.10;5.70;;;9.80;99.90;;;;;;4954998;29;20326;-60
2022/01/10 09:43:51;;;;;;;9.50;5.97;;;10.00;99.90;;;;;;4954558;28;20636;-64
2022/01/10 09:46:20;;;;;;;12.65;6.35;;;10.30;99.90;;;;;;4955138;29;20298;-64
2022/01/10 09:48:49;;;;;;;13.35;7.55;;;10.50;99.90;;;;;;4954651;29;20286;-64
2022/01/10 09:51:26;;;;;;;10.88;6.28;;;10.70;99.90;;;;;;4954876;29;20306;-64
2022/01/10 09:53:55;;;;;;;14.88;7.43;;;10.90;99.90;;;;;;4954683;28;20211;-63
2022/01/10 09:56:23;;;;;;;7.30;6.57;;;10.90;99.90;;;;;;4954765;29;20291;-63
2022/01/10 09:58:53;;;;;;;12.23;6.43;;;10.80;99.90;;;;;;4949430;28;20320;-64
2022/01/10 10:01:24;;;;;;;12.10;7.13;;;10.70;99.90;;;;;;4944868;29;20255;-64
2022/01/10 10:03:58;;;;;;;10.68;6.63;;;10.70;99.90;;;;;;4954513;29;20250;-64
2022/01/10 10:06:27;;;;;;;10.13;6.65;;;10.60;99.90;;;;;;4954469;29;20672;-64
2022/01/10 10:09:00;;;;;;;15.88;6.85;;;10.80;99.90;;;;;;4954532;29;20217;-61
2022/01/10 10:11:43;;;;;;;12.18;8.10;;;11.00;99.90;;;;;;4972517;23;20235;-64
2022/01/10 10:14:12;;;;;;;10.30;8.05;;;10.80;99.90;;;;;;4947791;29;20243;-64
2022/01/10 10:16:48;;;;;;;11.45;8.52;;;10.80;99.90;;;;;;4954122;29;20650;-64
2022/01/10 10:19:19;;;;;;;12.95;8.23;;;10.60;99.90;;;;;;4954463;29;20234;-64
2022/01/10 10:21:47;;;;;;;11.70;8.35;;;10.50;99.90;;;;;;4954405;29;20259;-64
2022/01/10 10:24:15;;;;;;;13.45;8.18;;;10.50;99.90;;;;;;4954304;29;20207;-64
2022/01/10 10:26:43;;;;;;;10.38;8.10;;;10.80;99.90;;;;;;4954296;29;20203;-64
2022/01/10 10:29:16;;;;;;;10.43;7.68;;;10.90;99.90;;;;;;4938122;29;20260;-64
2022/01/10 10:31:47;;;;;;;14.13;8.88;;;10.90;99.90;;;;;;4950411;29;20644;-65
2022/01/10 10:34:20;;;;;;;10.02;7.60;;;10.50;99.90;;;;;;4953997;29;20212;-64
2022/01/10 10:37:01;;;;;;;10.00;7.50;;;10.70;99.90;;;;;;4954168;29;20298;-64
2022/01/10 10:39:30;;;;;;;13.13;8.73;;;10.70;99.90;;;;;;4954343;29;20278;-64
2022/01/10 10:42:01;;;;;;;12.00;8.73;;;10.80;99.90;;;;;;4954086;29;20630;-64
2022/01/10 10:44:29;;;;;;;13.00;8.45;;;10.60;99.90;;;;;;4954064;29;20642;-64
2022/01/10 10:46:58;;;;;;;14.30;8.20;;;10.10;99.90;;;;;;4953801;29;20740;-63
2022/01/10 10:49:32;;;;;;;11.77;8.95;;;10.30;99.90;;;;;;4953976;29;20246;-64
2022/01/10 10:52:01;;;;;;;16.40;9.55;;;10.30;99.90;;;;;;4947593;29;20310;-64
2022/01/10 10:54:32;;;;;;;9.90;7.93;;;10.70;99.90;;;;;;4941688;29;20685;-64
2022/01/10 10:57:00;;;;;;;14.10;8.73;;;10.90;99.90;;;;;;4953877;29;20680;-64
2022/01/10 10:59:31;;;;;;;12.75;10.27;;;11.20;99.90;;;;;;4922145;29;20204;-64
2022/01/10 11:01:59;;;;;;;8.93;8.02;;;11.20;99.90;;;;;;4941727;29;20231;-64
2022/01/10 11:04:34;;;;;;;14.05;8.45;;;11.40;99.90;;;;;;4953705;29;20264;-64
2022/01/10 11:07:03;;;;;;;16.48;8.85;;;11.70;99.90;;;;;;4953605;29;20258;-64
2022/01/10 11:09:31;;;;;;;10.05;7.15;;;11.90;99.90;;;;;;4953813;29;20211;-64
2022/01/10 11:11:59;;;;;;;10.57;5.35;;;12.00;99.90;;;;;;4952230;28;20242;-63
2022/01/10 11:14:27;;;;;;;8.93;4.70;;;11.90;99.90;;;;;;4953379;29;20205;-64
2022/01/10 11:16:56;;;;;;;6.63;4.55;;;12.00;99.90;;;;;;4953508;29;20290;-64
2022/01/10 11:19:26;;;;;;;6.35;4.95;;;11.90;99.90;;;;;;4953246;29;20289;-64
2022/01/10 11:22:08;;;;;;;9.85;4.30;;;11.70;99.90;;;;;;4953303;29;20249;-64
2022/01/10 11:24:47;;;;;;;12.82;5.65;;;11.70;99.90;;;;;;4953244;29;20226;-64
2022/01/10 11:27:32;;;;;;;9.05;5.45;;;11.90;99.90;;;;;;4941277;29;20231;-64
2022/01/10 11:30:02;;;;;;;10.65;7.63;;;11.80;99.90;;;;;;4941983;29;20715;-64
2022/01/10 11:32:51;;;;;;;12.32;9.63;;;11.90;99.90;;;;;;4932348;29;20307;-64
2022/01/10 11:35:40;;;;;;;11.88;9.40;;;12.00;99.90;;;;;;4941973;29;20550;-64
2022/01/10 11:38:25;;;;;;;13.45;9.45;;;12.40;99.90;;;;;;4953127;29;20659;-64
2022/01/10 11:40:56;;;;;;;13.38;8.80;;;12.80;99.90;;;;;;4953003;29;20255;-64
2022/01/10 11:43:52;;;;;;;15.63;8.65;;;12.90;99.90;;;;;;4952686;29;20266;-63
2022/01/10 11:46:23;;;;;;;14.40;7.60;;;12.90;99.90;;;;;;4953094;29;20199;-64
2022/01/10 11:48:57;;;;;;;9.18;7.05;;;13.40;99.90;;;;;;4952981;29;20211;-64
2022/01/10 11:51:29;;;;;;;9.70;5.05;;;13.60;99.90;;;;;;4953098;29;20716;-64
2022/01/10 11:54:10;;;;;;;6.75;3.70;;;13.60;99.90;;;;;;4953078;29;20210;-64
2022/01/10 11:56:40;;;;;;;12.10;4.15;;;13.20;99.90;;;;;;4953217;29;20230;-64
2022/01/10 11:59:14;;;;;;;6.25;4.07;;;12.90;99.90;;;;;;4942992;29;20279;-64
2022/01/10 12:01:43;;;;;;;11.27;6.10;;;13.00;99.90;;;;;;4942129;29;20708;-64
2022/01/10 12:04:12;;;;;;;11.30;5.95;;;13.00;99.90;;;;;;4952590;29;20211;-64
2022/01/10 12:06:40;;;;;;;9.88;4.18;;;12.80;99.90;;;;;;4940561;29;20246;-64
2022/01/10 12:09:11;;;;;;;10.45;4.28;;;13.20;99.90;;;;;;4940759;29;20629;-64
2022/01/10 12:11:40;;;;;;;7.57;3.35;;;13.40;99.80;;;;;;4941368;29;20329;-64
2022/01/10 12:14:09;;;;;;;8.00;3.13;;;13.30;99.90;;;;;;4952875;29;20752;-64
2022/01/10 12:16:37;;;;;;;6.88;3.40;;;13.60;99.80;;;;;;4952690;29;20230;-64
2022/01/10 12:19:06;;;;;;;5.28;3.25;;;13.80;98.80;;;;;;4952935;29;20578;-64
2022/01/10 12:21:35;;;;;;;8.38;3.30;;;13.70;98.90;;;;;;4952753;28;20682;-64
2022/01/10 12:24:03;;;;;;;4.65;3.92;;;13.80;97.90;;;;;;4955722;29;20239;-64
2022/01/10 12:26:32;;;;;;;10.73;3.58;;;13.90;98.30;;;;;;4956052;29;20791;-64
2022/01/10 12:29:02;;;;;;;9.32;3.95;;;13.40;99.60;;;;;;4948514;29;20689;-66
2022/01/10 12:31:31;;;;;;;8.35;4.25;;;12.90;99.70;;;;;;4951001;29;20709;-64
2022/01/10 12:34:00;;;;;;;8.23;3.80;;;11.90;99.90;;;;;;4956280;29;20315;-65
2022/01/10 12:36:31;;;;;;;6.38;3.33;;;11.20;99.90;;;;;;4956298;29;20207;-64
2022/01/10 12:39:01;;;;;;;12.18;7.32;;;10.50;99.90;;;;;;4956097;29;20239;-64
2022/01/10 12:41:29;;;;;;;15.90;9.68;;;10.10;99.90;;;;;;4956317;29;20285;-64
2022/01/10 12:43:59;;;;;;;17.95;9.30;;;9.70;99.90;;;;;;4956016;29;20290;-64
2022/01/10 12:46:32;;;;;;;17.98;7.57;;;9.40;99.90;;;;;;4956355;29;20286;-64
2022/01/10 12:49:03;;;;;;;12.18;7.10;;;8.90;99.90;;;;;;4956034;29;20242;-64
2022/01/10 12:51:35;;;;;;;7.47;5.78;;;8.80;99.90;;;;;;4956272;29;20310;-64
2022/01/10 12:54:05;;;;;;;8.63;5.55;;;8.70;99.90;;;;;;4955690;29;20600;-64
2022/01/10 12:56:33;;;;;;;8.63;5.03;;;8.60;99.90;;;;;;4956092;29;20298;-64
2022/01/10 12:59:03;;;;;;;8.20;4.72;;;8.30;99.90;;;;;;4937607;29;20264;-64
2022/01/10 13:01:31;;;;;;;12.77;4.78;;;8.10;99.90;;;;;;4949088;29;20313;-63
2022/01/10 13:04:01;;;;;;;7.38;3.95;;;7.80;99.90;;;;;;4955766;29;20211;-63
2022/01/10 13:06:38;;;;;;;12.20;6.40;;;7.70;99.90;;;;;;4955897;29;20525;-63
2022/01/10 13:09:08;;;;;;;13.07;9.60;;;7.50;99.90;;;;;;4955678;29;20318;-63